Time;durP1;ratioP1;P1;durP2;ratioP2;P2;SDS_P1;SDS_P2;PMS_P1;PMS_P2;Temp;Humidity;BMP_temperature;BMP_pressure;BME280_temperature;BME280_humidity;BME280_pressure;Samples;Min_cycle;Max_cycle;Signal;HPM_P1;HPM_P2
2022/03/14 00:02:13;;;;;;;10.50;8.23;;;;;;;9.53;37.18;96707.94;5111580;28;20732;-65
2022/03/14 00:04:39;;;;;;;10.23;7.68;;;;;;;9.70;36.57;96703.69;5111976;28;20413;-65
2022/03/14 00:07:05;;;;;;;10.40;8.38;;;;;;;9.65;36.36;96710.63;5112359;28;20422;-65
2022/03/14 00:09:30;;;;;;;11.38;8.35;;;;;;;9.59;36.60;96725.38;5112349;28;20404;-65
2022/03/14 00:11:57;;;;;;;10.85;8.32;;;;;;;9.76;35.89;96717.72;5112558;28;20453;-65
2022/03/14 00:14:25;;;;;;;11.10;8.43;;;;;;;9.69;36.67;96724.88;5112123;28;20895;-65
2022/03/14 00:16:51;;;;;;;12.02;8.35;;;;;;;9.57;36.63;96724.81;5112668;28;20407;-66
2022/03/14 00:19:18;;;;;;;10.40;8.23;;;;;;;9.19;37.33;96730.34;5112069;28;20384;-66
2022/03/14 00:21:45;;;;;;;10.73;8.30;;;;;;;9.39;37.22;96738.72;5112382;28;20423;-65
2022/03/14 00:24:11;;;;;;;11.25;8.85;;;;;;;9.39;37.32;96745.78;5112220;28;20391;-65
2022/03/14 00:26:37;;;;;;;10.32;8.40;;;;;;;9.35;37.36;96732.34;5111492;28;20413;-65
2022/03/14 00:29:03;;;;;;;10.82;8.50;;;;;;;9.43;37.05;96747.72;5112213;28;20460;-66
2022/03/14 00:31:29;;;;;;;12.13;8.32;;;;;;;9.47;36.91;96750.72;5112413;28;20471;-65
2022/03/14 00:33:54;;;;;;;11.27;8.70;;;;;;;9.44;36.80;96756.38;5111911;28;20387;-65
2022/03/14 00:36:20;;;;;;;11.50;8.53;;;;;;;9.31;37.09;96759.13;5093657;28;20857;-66
2022/03/14 00:38:46;;;;;;;10.82;8.50;;;;;;;9.51;37.07;96771.00;5092940;28;20437;-65
2022/03/14 00:41:12;;;;;;;12.60;9.10;;;;;;;9.75;36.63;96784.97;5111788;28;20384;-65
2022/03/14 00:43:38;;;;;;;10.33;8.17;;;;;;;9.55;37.07;96790.44;5111941;28;20442;-67
2022/03/14 00:46:04;;;;;;;12.00;9.63;;;;;;;9.33;37.81;96794.53;5111515;28;20977;-65
2022/03/14 00:48:32;;;;;;;13.70;9.82;;;;;;;9.26;37.77;96798.22;5118057;28;20388;-65
2022/03/14 00:50:58;;;;;;;12.43;9.50;;;;;;;9.24;38.34;96811.53;5118446;28;20384;-65
2022/03/14 00:53:23;;;;;;;12.25;9.07;;;;;;;9.49;37.63;96822.72;5118946;28;20410;-65
2022/03/14 00:55:49;;;;;;;10.48;8.48;;;;;;;9.53;37.38;96831.72;5118323;28;20449;-65
2022/03/14 00:58:14;;;;;;;11.20;8.80;;;;;;;9.46;37.96;96840.69;5100372;28;20394;-65
2022/03/14 01:00:39;;;;;;;13.13;9.07;;;;;;;9.42;37.99;96842.91;5118228;28;20384;-63
2022/03/14 01:03:05;;;;;;;12.87;9.13;;;;;;;9.76;37.33;96849.38;5117643;28;20479;-65
2022/03/14 01:05:30;;;;;;;11.40;8.47;;;;;;;9.79;37.55;96856.81;5118558;28;20417;-65
2022/03/14 01:07:56;;;;;;;11.43;8.60;;;;;;;9.91;37.59;96852.44;5118604;28;20475;-65
2022/03/14 01:10:23;;;;;;;11.97;8.87;;;;;;;9.90;37.93;96868.34;5117989;28;20894;-65
2022/03/14 01:12:49;;;;;;;12.50;9.43;;;;;;;9.87;37.97;96880.06;5118281;28;20388;-65
2022/03/14 01:15:14;;;;;;;13.30;9.07;;;;;;;9.81;38.16;96887.97;5118268;28;20871;-65
2022/03/14 01:17:40;;;;;;;12.07;8.80;;;;;;;9.94;38.41;96891.25;5118105;28;20380;-65
2022/03/14 01:20:08;;;;;;;11.98;9.13;;;;;;;10.00;38.78;96902.66;5100130;28;20399;-65
2022/03/14 01:22:34;;;;;;;14.10;10.07;;;;;;;9.98;39.43;96904.69;5118283;28;20737;-66
2022/03/14 01:24:59;;;;;;;16.85;11.00;;;;;;;10.29;41.66;96909.00;5118029;28;20404;-69
2022/03/14 01:27:24;;;;;;;15.63;11.20;;;;;;;10.06;43.39;96917.50;5118128;28;20395;-65
2022/03/14 01:29:50;;;;;;;16.85;11.43;;;;;;;9.88;46.35;96923.53;5118568;28;20413;-65
2022/03/14 01:32:15;;;;;;;16.17;12.30;;;;;;;9.86;47.80;96930.81;5117853;28;20388;-65
2022/03/14 01:34:41;;;;;;;17.35;12.30;;;;;;;9.87;49.50;96945.50;5117747;28;20384;-65
2022/03/14 01:37:06;;;;;;;16.77;12.43;;;;;;;9.69;51.61;96963.03;5117544;28;20392;-66
2022/03/14 01:39:32;;;;;;;16.30;12.43;;;;;;;9.51;55.92;96963.78;5099519;28;20823;-65
2022/03/14 01:41:58;;;;;;;16.90;13.18;;;;;;;9.41;59.76;96977.38;5118425;28;20398;-65
2022/03/14 01:44:24;;;;;;;18.85;13.70;;;;;;;9.42;61.70;96991.22;5118513;28;20413;-65
2022/03/14 01:46:50;;;;;;;20.17;14.13;;;;;;;9.39;63.79;97000.31;5118371;28;20795;-65
2022/03/14 01:49:15;;;;;;;17.87;14.10;;;;;;;9.40;64.78;97012.38;5118383;28;20384;-65
2022/03/14 01:51:41;;;;;;;17.33;13.63;;;;;;;9.21;65.71;97020.34;5117846;28;20777;-65
2022/03/14 01:54:11;;;;;;;18.27;13.90;;;;;;;9.19;66.69;97018.75;5118516;28;20479;-65
2022/03/14 01:56:38;;;;;;;18.25;14.27;;;;;;;9.19;67.69;97023.97;5100232;28;20745;-65
2022/03/14 01:59:05;;;;;;;17.92;14.38;;;;;;;9.27;69.00;97032.59;5097367;28;20389;-65
2022/03/14 02:01:31;;;;;;;18.00;13.68;;;;;;;9.30;69.25;97027.75;5114724;28;20396;-65
2022/03/14 02:03:57;;;;;;;18.40;14.45;;;;;;;9.34;70.86;97042.00;5114709;28;20410;-65
2022/03/14 02:06:22;;;;;;;17.80;13.90;;;;;;;9.27;71.08;97049.09;5114150;28;20412;-65
2022/03/14 02:08:48;;;;;;;20.00;13.93;;;;;;;9.11;73.26;97046.97;5096440;28;20404;-65
2022/03/14 02:11:13;;;;;;;18.30;14.00;;;;;;;9.21;71.24;97060.41;5113886;28;20402;-65
2022/03/14 02:13:38;;;;;;;17.05;13.73;;;;;;;9.31;70.48;97063.34;5114379;28;20433;-65
2022/03/14 02:16:04;;;;;;;18.30;13.57;;;;;;;9.22;70.72;97066.44;5114828;28;20449;-65
2022/03/14 02:18:29;;;;;;;18.70;13.77;;;;;;;9.10;70.45;97074.94;5114485;28;20408;-65
2022/03/14 02:20:55;;;;;;;16.20;12.87;;;;;;;9.08;69.12;97082.19;5114097;28;20392;-65
2022/03/14 02:23:21;;;;;;;18.25;13.77;;;;;;;9.04;68.38;97077.59;5114252;28;20410;-65
2022/03/14 02:25:51;;;;;;;16.70;13.00;;;;;;;8.99;69.30;97086.06;5114324;28;20437;-66
2022/03/14 02:28:22;;;;;;;16.98;13.40;;;;;;;9.20;67.66;97079.72;5114738;28;20445;-65
2022/03/14 02:30:49;;;;;;;17.13;13.77;;;;;;;9.03;68.83;97094.28;5113470;28;20422;-65
2022/03/14 02:33:14;;;;;;;17.35;13.52;;;;;;;9.26;67.78;97089.31;5095679;28;20384;-65
2022/03/14 02:35:42;;;;;;;15.05;12.60;;;;;;;9.15;68.68;97090.00;5095221;28;20465;-65
2022/03/14 02:38:12;;;;;;;15.13;12.48;;;;;;;9.05;68.74;97093.06;5114275;28;20857;-65
2022/03/14 02:40:41;;;;;;;15.02;11.70;;;;;;;9.14;69.19;97098.84;5095366;28;20753;-65
2022/03/14 02:43:06;;;;;;;15.27;11.70;;;;;;;9.12;70.50;97104.31;5113837;28;20963;-65
2022/03/14 02:45:33;;;;;;;14.87;11.30;;;;;;;9.17;71.79;97107.09;5095363;28;20436;-65
2022/03/14 02:47:59;;;;;;;14.20;11.48;;;;;;;9.10;73.95;97108.13;5114101;28;20475;-65
2022/03/14 02:50:25;;;;;;;13.00;11.18;;;;;;;9.11;76.01;97110.53;5095602;28;20477;-65
2022/03/14 02:52:50;;;;;;;13.20;10.68;;;;;;;8.91;78.40;97115.06;5095553;28;20388;-65
2022/03/14 02:55:17;;;;;;;12.70;10.50;;;;;;;8.96;79.79;97117.88;5113247;28;20449;-65
2022/03/14 02:57:43;;;;;;;13.95;11.18;;;;;;;8.93;81.83;97130.53;5113238;28;20402;-66
2022/03/14 03:00:10;;;;;;;14.23;11.03;;;;;;;8.72;84.53;97135.03;5113683;28;20932;-65
2022/03/14 03:02:36;;;;;;;13.80;11.23;;;;;;;8.58;89.25;97143.91;5112852;28;20423;-65
2022/03/14 03:05:05;;;;;;;16.67;11.73;;;;;;;8.39;93.63;97149.97;5095473;28;20439;-66
2022/03/14 03:07:30;;;;;;;15.75;11.48;;;;;;;8.34;95.83;97149.78;5112975;28;20891;-66
2022/03/14 03:09:56;;;;;;;15.40;11.80;;;;;;;8.37;97.01;97144.16;5112877;28;20399;-65
2022/03/14 03:12:25;;;;;;;13.90;11.35;;;;;;;8.42;98.22;97135.69;5095052;28;20430;-65
2022/03/14 03:14:51;;;;;;;13.15;10.93;;;;;;;8.41;98.74;97127.09;5113093;28;20414;-66
2022/03/14 03:17:16;;;;;;;12.30;10.57;;;;;;;8.26;100.00;97136.91;5112997;28;20869;-65
2022/03/14 03:19:42;;;;;;;12.53;10.80;;;;;;;8.27;100.00;97154.19;5113434;28;20400;-65
2022/03/14 03:22:07;;;;;;;12.87;9.90;;;;;;;8.23;100.00;97166.84;5113449;28;20475;-65
2022/03/14 03:24:32;;;;;;;13.23;10.67;;;;;;;8.10;100.00;97171.25;5113446;28;20393;-66
2022/03/14 03:26:58;;;;;;;12.53;10.60;;;;;;;8.41;100.00;97179.31;5113183;28;20450;-66
2022/03/14 03:29:24;;;;;;;12.17;10.37;;;;;;;8.21;100.00;97187.13;5113224;28;20877;-65
2022/03/14 03:31:49;;;;;;;12.85;9.82;;;;;;;8.16;100.00;97194.75;5095402;28;20420;-66
2022/03/14 03:34:15;;;;;;;13.15;10.65;;;;;;;8.21;100.00;97200.19;5113228;28;20435;-65
2022/03/14 03:36:41;;;;;;;12.57;10.80;;;;;;;8.13;100.00;97208.22;5112921;28;20888;-65
2022/03/14 03:39:06;;;;;;;12.80;11.13;;;;;;;7.96;100.00;97214.84;5112494;28;20410;-65
2022/03/14 03:41:31;;;;;;;14.20;11.43;;;;;;;8.14;100.00;97215.03;5113109;28;20504;-66
2022/03/14 03:43:57;;;;;;;15.70;12.60;;;;;;;8.26;100.00;97216.03;5093855;28;20384;-66
2022/03/14 03:46:23;;;;;;;14.85;12.57;;;;;;;8.34;100.00;97212.47;5112553;28;20412;-66
2022/03/14 03:48:48;;;;;;;16.13;12.55;;;;;;;8.24;100.00;97222.50;5112818;28;20388;-65
2022/03/14 03:51:13;;;;;;;15.23;11.80;;;;;;;8.17;100.00;97224.28;5112296;28;20392;-65
2022/03/14 03:53:39;;;;;;;14.23;11.38;;;;;;;8.33;100.00;97227.34;5112734;28;20406;-66
2022/03/14 03:56:04;;;;;;;12.77;10.97;;;;;;;8.10;100.00;97226.09;5112570;28;20898;-65
2022/03/14 03:58:30;;;;;;;14.47;10.50;;;;;;;8.06;100.00;97228.31;5112459;28;20473;-66
2022/03/14 04:00:55;;;;;;;12.33;9.33;;;;;;;8.09;100.00;97233.09;5112433;28;20393;-66
2022/03/14 04:03:21;;;;;;;10.70;8.75;;;;;;;8.19;100.00;97243.97;5093710;28;20453;-65
2022/03/14 04:05:47;;;;;;;8.80;7.20;;;;;;;8.21;100.00;97243.75;5112202;28;20404;-65
2022/03/14 04:08:13;;;;;;;7.00;6.25;;;;;;;8.19;100.00;97246.56;5111955;28;20384;-66
2022/03/14 04:10:39;;;;;;;7.28;5.75;;;;;;;7.91;100.00;97245.97;5112350;28;20388;-66
2022/03/14 04:13:06;;;;;;;5.63;4.20;;;;;;;7.85;100.00;97250.16;5111863;28;20437;-66
2022/03/14 04:15:36;;;;;;;5.15;4.65;;;;;;;7.89;100.00;97247.94;5095936;28;20423;-65
2022/03/14 04:18:02;;;;;;;4.22;3.83;;;;;;;7.65;100.00;97241.47;5112426;28;20475;-65
2022/03/14 04:20:28;;;;;;;4.40;3.80;;;;;;;7.64;100.00;97252.09;5112174;28;20407;-66
2022/03/14 04:22:53;;;;;;;3.77;3.37;;;;;;;7.69;100.00;97254.94;5111495;28;21005;-66
2022/03/14 04:25:19;;;;;;;3.45;3.15;;;;;;;7.69;100.00;97262.75;5111977;28;20749;-65
2022/03/14 04:27:44;;;;;;;3.60;3.30;;;;;;;7.89;100.00;97280.06;5112294;28;20388;-65
2022/03/14 04:30:10;;;;;;;3.87;3.03;;;;;;;7.68;100.00;97292.44;5111558;28;20468;-65
2022/03/14 04:32:36;;;;;;;2.75;2.55;;;;;;;7.78;100.00;97304.13;5112182;28;20846;-66
2022/03/14 04:35:02;;;;;;;2.80;2.60;;;;;;;7.82;100.00;97309.75;5111802;28;20392;-66
2022/03/14 04:37:28;;;;;;;2.53;2.33;;;;;;;7.74;100.00;97315.97;5111833;28;20468;-66
2022/03/14 04:39:54;;;;;;;2.50;2.30;;;;;;;7.58;100.00;97324.09;5110954;28;20443;-66
2022/03/14 04:42:21;;;;;;;2.20;2.10;;;;;;;7.90;100.00;97320.03;5111380;28;20410;-67
2022/03/14 04:44:49;;;;;;;2.33;2.13;;;;;;;7.80;100.00;97327.44;5111296;28;20441;-65
2022/03/14 04:47:15;;;;;;;2.00;1.83;;;;;;;7.60;100.00;97324.72;5111820;28;20805;-65
2022/03/14 04:49:42;;;;;;;2.08;1.88;;;;;;;7.54;100.00;97335.94;5093261;28;20549;-66
2022/03/14 04:52:08;;;;;;;2.28;1.80;;;;;;;7.73;100.00;97343.06;5111867;28;20384;-66
2022/03/14 04:54:33;;;;;;;2.08;1.58;;;;;;;7.61;100.00;97328.13;5111535;28;20726;-66
2022/03/14 04:56:59;;;;;;;1.67;1.40;;;;;;;7.46;100.00;97325.66;5111935;28;20521;-65
2022/03/14 04:59:24;;;;;;;1.83;1.50;;;;;;;7.51;100.00;97323.28;5111514;28;20379;-66
2022/03/14 05:01:49;;;;;;;1.50;1.40;;;;;;;7.54;100.00;97325.50;5111219;28;20391;-66
2022/03/14 05:04:15;;;;;;;1.33;1.30;;;;;;;7.46;100.00;97329.09;5093433;28;20388;-66
2022/03/14 05:06:40;;;;;;;1.30;1.30;;;;;;;7.45;100.00;97331.88;5093314;28;20446;-66
2022/03/14 05:09:06;;;;;;;1.80;1.57;;;;;;;7.39;100.00;97324.81;5111657;28;20443;-66
2022/03/14 05:11:32;;;;;;;1.50;1.40;;;;;;;7.58;100.00;97337.13;5111617;28;20441;-66
2022/03/14 05:13:58;;;;;;;1.50;1.40;;;;;;;7.51;100.00;97359.81;5093192;28;20399;-66
2022/03/14 05:16:25;;;;;;;1.33;1.20;;;;;;;7.55;100.00;97383.69;5110729;28;20753;-65
2022/03/14 05:18:50;;;;;;;1.40;1.30;;;;;;;7.72;100.00;97379.75;5092846;28;20396;-66
2022/03/14 05:21:16;;;;;;;1.50;1.40;;;;;;;7.60;100.00;97374.28;5111321;28;20392;-66
2022/03/14 05:23:41;;;;;;;1.30;1.20;;;;;;;7.58;100.00;97372.88;5111814;28;20380;-66
2022/03/14 05:26:07;;;;;;;1.27;1.27;;;;;;;7.55;100.00;97384.50;5110676;28;20404;-66
2022/03/14 05:28:33;;;;;;;1.47;1.37;;;;;;;7.50;100.00;97389.47;5111461;28;21079;-66
2022/03/14 05:30:58;;;;;;;1.30;1.20;;;;;;;7.40;100.00;97386.41;5111840;28;20395;-66
2022/03/14 05:33:24;;;;;;;1.20;1.20;;;;;;;7.33;100.00;97393.38;5111725;28;20388;-67
2022/03/14 05:35:51;;;;;;;1.30;1.20;;;;;;;7.36;100.00;97395.59;5096992;28;20475;-67
2022/03/14 05:38:16;;;;;;;1.20;1.20;;;;;;;7.37;100.00;97399.81;5114929;28;20419;-67
2022/03/14 05:40:42;;;;;;;1.20;1.17;;;;;;;7.45;100.00;97407.50;5093571;28;20440;-67
2022/03/14 05:43:09;;;;;;;1.20;1.20;;;;;;;7.21;100.00;97415.75;5095112;28;20444;-67
2022/03/14 05:45:35;;;;;;;1.17;1.17;;;;;;;7.14;100.00;97430.53;5094787;28;20496;-67
2022/03/14 05:48:01;;;;;;;1.10;1.10;;;;;;;7.34;100.00;97441.94;5095147;28;20551;-67
2022/03/14 05:50:26;;;;;;;1.10;1.10;;;;;;;7.38;100.00;97436.16;5093251;28;20402;-67
2022/03/14 05:52:53;;;;;;;1.37;1.33;;;;;;;7.55;100.00;97452.31;5094911;28;20378;-67
2022/03/14 05:55:19;;;;;;;1.10;1.10;;;;;;;7.51;99.61;97446.69;5094312;28;20489;-66
2022/03/14 05:57:47;;;;;;;1.13;1.10;;;;;;;7.52;99.45;97452.72;5094517;28;20424;-67
2022/03/14 06:00:20;;;;;;;1.10;1.10;;;;;;;7.31;99.18;97444.91;5094170;28;20483;-67
2022/03/14 06:02:46;;;;;;;1.10;1.10;;;;;;;7.37;99.49;97450.19;5092438;28;20402;-67
2022/03/14 06:05:12;;;;;;;1.30;1.20;;;;;;;7.31;100.00;97466.56;5094607;28;20406;-67
2022/03/14 06:07:38;;;;;;;1.33;1.30;;;;;;;7.39;99.44;97468.25;5094179;28;20389;-67
2022/03/14 06:10:03;;;;;;;1.30;1.20;;;;;;;7.39;99.19;97476.06;5094576;28;20894;-67
2022/03/14 06:12:30;;;;;;;1.30;1.20;;;;;;;7.35;99.31;97459.19;5094127;28;20448;-67
2022/03/14 06:14:58;;;;;;;1.10;1.10;;;;;;;7.35;99.47;97473.06;5094468;28;20394;-66
2022/03/14 06:17:23;;;;;;;1.40;1.10;;;;;;;7.43;99.26;97477.28;5094277;28;20504;-67
2022/03/14 06:19:50;;;;;;;1.20;1.20;;;;;;;7.36;98.60;97479.03;5092884;28;20493;-66
2022/03/14 06:22:20;;;;;;;1.10;1.10;;;;;;;7.32;98.41;97481.22;5093905;28;20397;-67
2022/03/14 06:24:46;;;;;;;1.10;1.10;;;;;;;7.49;98.14;97479.97;5093693;28;20441;-67
2022/03/14 06:27:13;;;;;;;1.00;1.00;;;;;;;7.39;98.05;97484.69;5094422;28;20464;-66
2022/03/14 06:29:39;;;;;;;1.20;1.15;;;;;;;7.45;96.25;97483.94;5077656;28;20969;-67
2022/03/14 06:32:04;;;;;;;1.30;1.20;;;;;;;7.43;96.92;97487.72;5093770;28;20568;-66
2022/03/14 06:34:30;;;;;;;1.20;1.10;;;;;;;7.49;96.17;97495.59;5094039;28;20411;-65
2022/03/14 06:36:56;;;;;;;1.20;1.10;;;;;;;7.74;94.50;97503.00;5093908;28;20381;-66
2022/03/14 06:39:21;;;;;;;1.33;1.10;;;;;;;7.66;94.70;97500.53;5091907;28;20478;-67
2022/03/14 06:41:47;;;;;;;1.10;1.00;;;;;;;7.60;93.65;97504.72;5093806;28;20739;-67
2022/03/14 06:44:13;;;;;;;1.30;0.93;;;;;;;7.78;92.95;97506.84;5093310;28;20469;-67
2022/03/14 06:46:39;;;;;;;0.98;0.98;;;;;;;7.60;93.53;97520.38;5093740;28;20488;-67
2022/03/14 06:49:04;;;;;;;1.00;1.00;;;;;;;7.66;93.42;97527.44;5092383;28;20391;-68
2022/03/14 06:51:30;;;;;;;1.57;0.97;;;;;;;7.70;92.39;97531.28;5094001;28;20382;-67
2022/03/14 06:53:55;;;;;;;1.55;1.13;;;;;;;7.64;92.19;97537.25;5093195;28;20905;-67
2022/03/14 06:56:21;;;;;;;1.70;1.20;;;;;;;7.72;92.26;97534.50;5093321;28;20393;-67
2022/03/14 06:58:46;;;;;;;1.58;1.10;;;;;;;7.98;91.52;97538.28;5093307;28;20430;-67
2022/03/14 07:01:12;;;;;;;1.10;1.00;;;;;;;8.10;89.91;97534.94;5092943;28;20394;-67
2022/03/14 07:03:38;;;;;;;1.27;1.00;;;;;;;8.34;88.99;97533.72;5092656;28;20813;-67
2022/03/14 07:06:04;;;;;;;1.00;0.90;;;;;;;8.57;86.20;97528.19;5093257;28;20413;-68
2022/03/14 07:08:30;;;;;;;1.17;1.03;;;;;;;8.75;85.94;97531.84;5093098;28;20427;-68
2022/03/14 07:10:55;;;;;;;1.50;0.93;;;;;;;8.83;84.97;97538.72;5093166;28;20385;-68
2022/03/14 07:13:21;;;;;;;1.00;0.90;;;;;;;9.08;84.66;97541.63;5092880;28;20469;-68
2022/03/14 07:15:46;;;;;;;1.35;1.00;;;;;;;9.23;82.96;97547.47;5092661;28;20815;-69
2022/03/14 07:18:12;;;;;;;2.23;0.90;;;;;;;9.50;81.90;97543.06;5092883;28;20865;-68
2022/03/14 07:20:38;;;;;;;0.88;0.88;;;;;;;9.81;81.29;97535.38;5092504;28;20386;-66
2022/03/14 07:23:06;;;;;;;0.82;0.82;;;;;;;9.76;81.27;97539.63;5092749;28;20600;-67
2022/03/14 07:25:34;;;;;;;0.70;0.70;;;;;;;9.60;81.13;97544.28;5090538;28;20542;-66
2022/03/14 07:28:05;;;;;;;0.68;0.68;;;;;;;9.40;82.47;97559.16;5092691;28;20382;-67
2022/03/14 07:30:31;;;;;;;0.85;0.85;;;;;;;9.29;82.99;97567.59;5091336;28;20785;-67
2022/03/14 07:32:56;;;;;;;0.70;0.70;;;;;;;9.47;82.63;97561.78;5092935;28;20397;-67
2022/03/14 07:35:24;;;;;;;0.80;0.80;;;;;;;9.73;81.78;97572.25;5087979;28;20877;-69
2022/03/14 07:37:50;;;;;;;0.80;0.80;;;;;;;9.83;80.48;97570.03;5086456;28;20386;-69
2022/03/14 07:40:16;;;;;;;2.22;1.55;;;;;;;9.89;87.43;97574.47;5103911;28;20420;-68
2022/03/14 07:42:46;;;;;;;0.97;0.93;;;;;;;10.06;81.90;97577.47;5112561;28;20449;-67
2022/03/14 07:45:14;;;;;;;1.30;0.77;;;;;;;10.34;79.11;97587.75;5112825;28;20480;-70
2022/03/14 07:47:40;;;;;;;2.10;0.80;;;;;;;10.57;77.71;97587.28;5112655;28;20411;-68
2022/03/14 07:50:07;;;;;;;1.30;0.80;;;;;;;11.00;75.97;97590.13;5112678;28;20444;-68
2022/03/14 07:52:34;;;;;;;1.05;0.73;;;;;;;10.92;74.58;97604.31;5112626;28;20453;-70
2022/03/14 07:54:59;;;;;;;0.70;0.70;;;;;;;11.07;73.87;97602.22;5111905;28;20428;-66
2022/03/14 07:57:25;;;;;;;1.23;0.77;;;;;;;10.53;70.30;97623.59;5093256;28;20906;-68
2022/03/14 07:59:51;;;;;;;0.73;0.70;;;;;;;9.87;71.93;97625.41;5112623;28;20388;-68
2022/03/14 08:02:17;;;;;;;0.80;0.80;;;;;;;9.77;73.72;97631.06;5111822;28;20445;-67
2022/03/14 08:04:42;;;;;;;1.50;0.80;;;;;;;10.00;71.62;97626.22;5112145;28;20870;-69
2022/03/14 08:07:08;;;;;;;1.25;0.73;;;;;;;10.34;70.85;97632.28;5093750;28;20795;-69
2022/03/14 08:09:33;;;;;;;0.80;0.80;;;;;;;10.76;71.20;97637.00;5093164;28;20448;-69
2022/03/14 08:12:04;;;;;;;0.90;0.90;;;;;;;10.88;69.71;97646.88;5112057;28;20424;-69
2022/03/14 08:14:31;;;;;;;0.80;0.80;;;;;;;11.14;68.87;97644.97;5112170;28;20381;-69
2022/03/14 08:16:56;;;;;;;1.52;0.85;;;;;;;11.29;68.47;97660.44;5111761;28;20395;-69
2022/03/14 08:19:21;;;;;;;1.13;0.90;;;;;;;11.36;67.92;97663.03;5111634;28;20387;-69
2022/03/14 08:21:47;;;;;;;0.80;0.80;;;;;;;11.21;67.81;97661.47;5111709;28;20411;-71
2022/03/14 08:24:13;;;;;;;2.03;0.87;;;;;;;11.46;67.14;97661.56;5110764;28;20764;-70
2022/03/14 08:26:39;;;;;;;0.95;0.80;;;;;;;11.62;66.06;97671.56;5109306;28;20519;-69
2022/03/14 08:29:04;;;;;;;2.43;1.00;;;;;;;10.85;66.20;97671.69;5110171;28;20471;-69
2022/03/14 08:31:32;;;;;;;1.65;0.80;;;;;;;10.31;68.07;97683.25;5108075;28;20395;-69
2022/03/14 08:33:57;;;;;;;1.40;0.98;;;;;;;10.63;66.31;97678.22;5089907;28;20388;-71
2022/03/14 08:36:23;;;;;;;1.05;0.80;;;;;;;11.01;65.89;97683.56;5072772;28;20464;-69
2022/03/14 08:38:49;;;;;;;2.38;1.00;;;;;;;11.44;63.25;97679.34;5109242;28;20408;-71
2022/03/14 08:41:16;;;;;;;1.85;1.10;;;;;;;11.39;63.33;97681.78;5110995;28;20403;-72
2022/03/14 08:43:43;;;;;;;2.85;1.10;;;;;;;11.66;62.13;97685.88;5105041;28;20449;-70
2022/03/14 08:46:09;;;;;;;2.08;0.93;;;;;;;11.73;61.33;97685.03;5105597;28;20404;-69
2022/03/14 08:48:35;;;;;;;3.03;0.90;;;;;;;11.85;59.26;97691.25;5111666;28;20504;-70
2022/03/14 08:51:00;;;;;;;1.40;0.93;;;;;;;11.82;59.53;97700.34;5092789;28;20521;-70
2022/03/14 08:53:25;;;;;;;2.50;1.00;;;;;;;11.61;60.44;97708.53;5111433;28;20410;-70
2022/03/14 08:55:52;;;;;;;0.83;0.83;;;;;;;11.10;60.71;97701.47;5111692;28;20471;-69
2022/03/14 08:58:17;;;;;;;3.35;1.00;;;;;;;11.06;61.59;97712.59;5108317;28;20386;-72
2022/03/14 09:00:43;;;;;;;1.90;0.87;;;;;;;10.84;61.73;97714.66;5107497;28;20380;-68
2022/03/14 09:03:09;;;;;;;2.13;0.90;;;;;;;10.90;61.59;97716.47;5103216;28;20721;-69
2022/03/14 09:05:34;;;;;;;1.77;0.82;;;;;;;11.13;61.58;97719.44;5111678;28;20916;-67
2022/03/14 09:08:00;;;;;;;3.03;0.90;;;;;;;11.16;60.51;97712.97;5109822;28;20416;-68
2022/03/14 09:10:26;;;;;;;1.90;0.97;;;;;;;11.20;58.89;97711.56;5115244;28;20701;-68
2022/03/14 09:12:51;;;;;;;2.72;1.02;;;;;;;10.93;58.87;97718.66;5115784;28;20446;-68
2022/03/14 09:15:17;;;;;;;1.57;0.90;;;;;;;10.89;58.26;97720.09;5115130;28;20844;-68
2022/03/14 09:17:57;;;;;;;1.20;1.00;;;;;;;11.03;58.33;97732.19;5115336;28;20720;-66
2022/03/14 09:20:24;;;;;;;0.90;0.90;;;;;;;10.94;57.12;97722.09;5115376;28;20858;-66
2022/03/14 09:22:50;;;;;;;1.48;1.00;;;;;;;10.74;57.11;97722.16;5115042;28;20842;-67
2022/03/14 09:25:16;;;;;;;1.63;1.00;;;;;;;11.10;57.73;97725.09;5114378;28;20560;-68
2022/03/14 09:27:43;;;;;;;2.00;0.98;;;;;;;11.08;55.28;97726.31;5096841;28;20380;-67
2022/03/14 09:30:11;;;;;;;2.70;1.03;;;;;;;11.12;55.57;97720.44;5112011;28;20381;-68
2022/03/14 09:32:36;;;;;;;3.45;1.08;;;;;;;10.74;55.67;97738.69;5110984;28;20879;-66
2022/03/14 09:35:04;;;;;;;2.70;1.10;;;;;;;10.51;55.96;97738.31;5108901;28;20404;-67
2022/03/14 09:37:30;;;;;;;2.45;1.17;;;;;;;10.33;56.24;97740.72;5114947;28;20403;-66
2022/03/14 09:39:56;;;;;;;2.00;1.10;;;;;;;10.32;56.79;97742.53;5113994;28;20691;-68
2022/03/14 09:42:24;;;;;;;2.73;1.10;;;;;;;10.12;56.78;97746.13;5114589;28;20407;-66
2022/03/14 09:44:57;;;;;;;2.28;1.10;;;;;;;10.27;56.52;97739.72;5114337;28;20384;-66
2022/03/14 09:47:23;;;;;;;5.00;1.00;;;;;;;10.48;55.89;97743.16;5114021;28;20472;-67
2022/03/14 09:49:54;;;;;;;3.35;1.17;;;;;;;10.72;55.64;97745.94;5114339;28;20922;-67
2022/03/14 09:52:20;;;;;;;1.60;1.08;;;;;;;10.82;55.07;97742.91;5114594;28;20427;-67
2022/03/14 09:54:46;;;;;;;5.03;1.30;;;;;;;11.15;54.48;97734.97;5113823;28;20694;-68
2022/03/14 09:57:14;;;;;;;2.38;1.00;;;;;;;10.90;54.32;97737.47;5114180;28;20481;-67
2022/03/14 09:59:39;;;;;;;3.73;1.13;;;;;;;10.83;54.02;97734.84;5114632;28;20411;-68
2022/03/14 10:02:05;;;;;;;2.53;1.10;;;;;;;10.94;53.19;97735.22;5110611;28;20860;-67
2022/03/14 10:04:30;;;;;;;3.00;1.05;;;;;;;11.12;53.58;97741.44;5114055;28;20376;-67
2022/03/14 10:06:56;;;;;;;2.03;1.00;;;;;;;11.38;52.90;97731.84;5113474;28;20412;-68
2022/03/14 10:09:21;;;;;;;2.38;1.10;;;;;;;11.35;53.35;97734.91;5114048;28;20486;-68
2022/03/14 10:11:46;;;;;;;4.63;1.43;;;;;;;11.54;54.39;97731.38;5114823;28;20472;-67
2022/03/14 10:14:19;;;;;;;2.77;1.00;;;;;;;11.74;53.06;97749.72;5114291;28;20795;-67
2022/03/14 10:16:45;;;;;;;2.92;1.30;;;;;;;11.64;53.53;97750.94;5093342;28;20430;-67
2022/03/14 10:19:10;;;;;;;3.05;1.20;;;;;;;11.88;52.80;97749.41;5113803;28;20475;-67
2022/03/14 10:21:44;;;;;;;1.20;1.00;;;;;;;11.73;54.18;97756.78;5113263;28;20473;-68
2022/03/14 10:24:12;;;;;;;2.50;1.03;;;;;;;11.68;53.44;97746.06;5091163;28;20463;-68
2022/03/14 10:26:41;;;;;;;3.42;1.02;;;;;;;11.83;52.63;97746.63;5093608;28;20409;-69
2022/03/14 10:29:12;;;;;;;1.92;0.98;;;;;;;12.16;51.83;97748.25;5111063;28;20384;-67
2022/03/14 10:31:43;;;;;;;1.88;0.90;;;;;;;12.07;51.64;97751.13;5112161;28;20411;-67
2022/03/14 10:34:12;;;;;;;1.73;0.88;;;;;;;12.33;51.01;97746.69;5111219;28;20899;-67
2022/03/14 10:36:49;;;;;;;1.10;0.80;;;;;;;12.30;49.87;97742.69;5113021;28;20797;-67
2022/03/14 10:39:28;;;;;;;2.20;1.00;;;;;;;12.28;50.43;97749.97;5113295;28;20436;-67
2022/03/14 10:41:59;;;;;;;3.00;1.27;;;;;;;12.45;50.59;97737.09;5113573;28;20428;-67
2022/03/14 10:44:25;;;;;;;1.55;0.90;;;;;;;12.36;49.91;97725.25;5113590;28;20402;-67
2022/03/14 10:46:51;;;;;;;1.93;1.10;;;;;;;12.56;50.36;97731.16;5113428;28;20431;-68
2022/03/14 10:49:17;;;;;;;1.63;1.02;;;;;;;12.72;49.76;97732.41;5113618;28;20403;-67
2022/03/14 10:51:56;;;;;;;2.25;0.90;;;;;;;12.74;49.29;97740.91;5094988;28;20380;-66
2022/03/14 10:54:21;;;;;;;2.20;1.10;;;;;;;12.99;49.10;97738.22;5110754;28;20396;-65
2022/03/14 10:57:22;;;;;;;1.60;1.10;;;;;;;12.74;48.78;97754.06;5113123;28;20399;-66
2022/03/14 10:59:49;;;;;;;1.92;0.98;;;;;;;12.87;48.30;97756.59;5058265;28;20396;-66
2022/03/14 11:02:22;;;;;;;1.50;0.90;;;;;;;12.91;47.70;97747.22;5113067;28;20388;-67
2022/03/14 11:04:49;;;;;;;1.90;0.90;;;;;;;13.09;47.37;97749.06;5112263;28;20866;-66
2022/03/14 11:07:27;;;;;;;1.30;0.90;;;;;;;13.18;47.02;97756.50;5113090;28;20400;-66
2022/03/14 11:09:58;;;;;;;2.22;0.90;;;;;;;13.05;46.91;97748.69;5107319;28;20418;-66
2022/03/14 11:12:25;;;;;;;1.80;1.00;;;;;;;13.29;46.90;97745.22;5112453;28;21054;-67
2022/03/14 11:14:53;;;;;;;1.27;0.93;;;;;;;13.27;46.19;97743.81;5112472;28;20475;-67
2022/03/14 11:17:24;;;;;;;2.97;1.00;;;;;;;13.33;46.33;97732.41;5112912;28;20392;-67
2022/03/14 11:19:51;;;;;;;2.95;0.90;;;;;;;13.15;46.02;97732.44;5113041;28;20427;-66
2022/03/14 11:22:18;;;;;;;2.80;1.00;;;;;;;13.17;46.00;97736.44;5111215;28;20385;-67
2022/03/14 11:24:45;;;;;;;2.40;1.10;;;;;;;13.11;45.65;97739.13;5092458;28;20400;-67
2022/03/14 11:27:17;;;;;;;1.70;1.00;;;;;;;12.85;45.33;97735.75;5109564;28;20388;-67
2022/03/14 11:29:44;;;;;;;1.33;0.90;;;;;;;12.77;45.63;97735.22;5109405;28;20413;-66